sensor_id;sensor_type;location;lat;lon;timestamp;P1;durP1;ratioP1;P2;durP2;ratioP2
21356;SDS011;10836;53.068;18.234;2022-11-18T00:01:07;63.50;;;30.23;;
21356;SDS011;10836;53.068;18.234;2022-11-18T00:03:36;55.20;;;27.63;;
21356;SDS011;10836;53.068;18.234;2022-11-18T00:06:04;59.97;;;27.10;;
21356;SDS011;10836;53.068;18.234;2022-11-18T00:08:32;49.70;;;24.07;;
21356;SDS011;10836;53.068;18.234;2022-11-18T00:11:10;48.80;;;23.77;;
21356;SDS011;10836;53.068;18.234;2022-11-18T00:13:38;52.53;;;24.03;;
21356;SDS011;10836;53.068;18.234;2022-11-18T00:16:24;48.03;;;20.80;;
21356;SDS011;10836;53.068;18.234;2022-11-18T00:18:51;43.83;;;21.53;;
21356;SDS011;10836;53.068;18.234;2022-11-18T00:21:18;42.27;;;19.23;;
21356;SDS011;10836;53.068;18.234;2022-11-18T00:23:47;45.70;;;22.90;;
21356;SDS011;10836;53.068;18.234;2022-11-18T00:26:14;40.20;;;19.83;;
21356;SDS011;10836;53.068;18.234;2022-11-18T00:28:41;41.97;;;20.80;;
21356;SDS011;10836;53.068;18.234;2022-11-18T00:31:10;42.57;;;19.00;;
21356;SDS011;10836;53.068;18.234;2022-11-18T00:33:39;40.60;;;19.80;;
21356;SDS011;10836;53.068;18.234;2022-11-18T00:36:07;38.30;;;18.73;;
21356;SDS011;10836;53.068;18.234;2022-11-18T00:38:36;42.20;;;19.33;;
21356;SDS011;10836;53.068;18.234;2022-11-18T00:41:08;40.73;;;19.70;;
21356;SDS011;10836;53.068;18.234;2022-11-18T00:43:36;42.73;;;19.90;;
21356;SDS011;10836;53.068;18.234;2022-11-18T00:46:04;46.27;;;22.97;;
21356;SDS011;10836;53.068;18.234;2022-11-18T00:48:33;45.07;;;21.27;;
21356;SDS011;10836;53.068;18.234;2022-11-18T00:53:33;45.77;;;21.03;;
21356;SDS011;10836;53.068;18.234;2022-11-18T00:56:01;41.30;;;21.23;;
21356;SDS011;10836;53.068;18.234;2022-11-18T00:58:28;43.63;;;21.03;;
21356;SDS011;10836;53.068;18.234;2022-11-18T01:00:56;45.87;;;21.73;;
21356;SDS011;10836;53.068;18.234;2022-11-18T01:03:23;51.53;;;21.90;;
21356;SDS011;10836;53.068;18.234;2022-11-18T01:05:51;50.23;;;23.83;;
21356;SDS011;10836;53.068;18.234;2022-11-18T01:08:18;45.63;;;23.80;;
21356;SDS011;10836;53.068;18.234;2022-11-18T01:10:46;52.37;;;24.37;;
21356;SDS011;10836;53.068;18.234;2022-11-18T01:13:16;49.90;;;23.43;;
21356;SDS011;10836;53.068;18.234;2022-11-18T01:15:46;45.17;;;22.97;;
21356;SDS011;10836;53.068;18.234;2022-11-18T01:18:19;42.97;;;22.57;;
21356;SDS011;10836;53.068;18.234;2022-11-18T01:20:49;48.10;;;22.03;;
21356;SDS011;10836;53.068;18.234;2022-11-18T01:23:16;41.50;;;21.07;;
21356;SDS011;10836;53.068;18.234;2022-11-18T01:25:45;43.40;;;21.73;;
21356;SDS011;10836;53.068;18.234;2022-11-18T01:28:15;44.27;;;21.53;;
21356;SDS011;10836;53.068;18.234;2022-11-18T01:30:49;45.10;;;21.80;;
21356;SDS011;10836;53.068;18.234;2022-11-18T01:33:16;39.93;;;20.63;;
21356;SDS011;10836;53.068;18.234;2022-11-18T01:35:44;45.47;;;23.17;;
21356;SDS011;10836;53.068;18.234;2022-11-18T01:38:11;49.93;;;22.70;;
21356;SDS011;10836;53.068;18.234;2022-11-18T01:40:40;52.07;;;25.70;;
21356;SDS011;10836;53.068;18.234;2022-11-18T01:43:11;55.23;;;26.67;;
21356;SDS011;10836;53.068;18.234;2022-11-18T01:45:40;50.60;;;26.43;;
21356;SDS011;10836;53.068;18.234;2022-11-18T01:50:48;53.87;;;25.57;;
21356;SDS011;10836;53.068;18.234;2022-11-18T01:53:25;51.57;;;25.90;;
21356;SDS011;10836;53.068;18.234;2022-11-18T01:55:55;50.87;;;25.40;;
21356;SDS011;10836;53.068;18.234;2022-11-18T02:01:05;42.60;;;23.17;;
21356;SDS011;10836;53.068;18.234;2022-11-18T02:03:33;44.50;;;21.53;;
21356;SDS011;10836;53.068;18.234;2022-11-18T02:06:01;38.60;;;21.57;;
21356;SDS011;10836;53.068;18.234;2022-11-18T02:08:30;37.63;;;19.93;;
21356;SDS011;10836;53.068;18.234;2022-11-18T02:11:03;39.63;;;20.80;;
21356;SDS011;10836;53.068;18.234;2022-11-18T02:13:30;42.27;;;20.83;;
21356;SDS011;10836;53.068;18.234;2022-11-18T02:16:05;44.70;;;23.83;;
21356;SDS011;10836;53.068;18.234;2022-11-18T02:18:51;39.47;;;21.67;;
21356;SDS011;10836;53.068;18.234;2022-11-18T02:27:02;41.97;;;20.53;;
21356;SDS011;10836;53.068;18.234;2022-11-18T02:29:55;41.07;;;20.83;;
21356;SDS011;10836;53.068;18.234;2022-11-18T02:32:31;41.30;;;23.27;;
21356;SDS011;10836;53.068;18.234;2022-11-18T02:35:14;39.00;;;20.93;;
21356;SDS011;10836;53.068;18.234;2022-11-18T02:37:51;44.73;;;22.73;;
21356;SDS011;10836;53.068;18.234;2022-11-18T02:40:42;43.57;;;22.17;;
21356;SDS011;10836;53.068;18.234;2022-11-18T02:43:14;43.00;;;21.83;;
21356;SDS011;10836;53.068;18.234;2022-11-18T02:45:45;40.70;;;21.20;;
21356;SDS011;10836;53.068;18.234;2022-11-18T02:48:17;40.03;;;21.20;;
21356;SDS011;10836;53.068;18.234;2022-11-18T02:50:47;33.90;;;18.17;;
21356;SDS011;10836;53.068;18.234;2022-11-18T02:53:18;30.07;;;16.27;;
21356;SDS011;10836;53.068;18.234;2022-11-18T02:55:46;27.83;;;15.83;;
21356;SDS011;10836;53.068;18.234;2022-11-18T02:58:16;23.33;;;14.03;;
21356;SDS011;10836;53.068;18.234;2022-11-18T03:00:52;25.27;;;13.77;;
21356;SDS011;10836;53.068;18.234;2022-11-18T03:03:33;24.03;;;13.70;;
21356;SDS011;10836;53.068;18.234;2022-11-18T03:16:55;21.23;;;12.40;;
21356;SDS011;10836;53.068;18.234;2022-11-18T03:24:47;22.77;;;13.00;;
21356;SDS011;10836;53.068;18.234;2022-11-18T03:27:34;25.27;;;13.90;;
21356;SDS011;10836;53.068;18.234;2022-11-18T03:30:08;28.33;;;14.13;;
21356;SDS011;10836;53.068;18.234;2022-11-18T03:32:40;19.33;;;13.00;;
21356;SDS011;10836;53.068;18.234;2022-11-18T03:35:11;23.13;;;12.60;;
21356;SDS011;10836;53.068;18.234;2022-11-18T03:37:43;21.20;;;12.77;;
21356;SDS011;10836;53.068;18.234;2022-11-18T03:40:22;18.87;;;11.00;;
21356;SDS011;10836;53.068;18.234;2022-11-18T03:42:55;17.57;;;10.60;;
21356;SDS011;10836;53.068;18.234;2022-11-18T03:45:55;16.07;;;8.43;;
21356;SDS011;10836;53.068;18.234;2022-11-18T03:48:28;12.47;;;7.57;;
21356;SDS011;10836;53.068;18.234;2022-11-18T03:51:00;13.30;;;8.13;;
21356;SDS011;10836;53.068;18.234;2022-11-18T03:53:33;12.57;;;7.00;;
21356;SDS011;10836;53.068;18.234;2022-11-18T03:56:09;13.20;;;8.07;;
21356;SDS011;10836;53.068;18.234;2022-11-18T03:58:48;12.37;;;7.43;;
21356;SDS011;10836;53.068;18.234;2022-11-18T04:01:24;13.87;;;7.30;;
21356;SDS011;10836;53.068;18.234;2022-11-18T04:03:59;11.90;;;7.27;;
21356;SDS011;10836;53.068;18.234;2022-11-18T04:06:36;14.07;;;7.67;;
21356;SDS011;10836;53.068;18.234;2022-11-18T04:09:09;12.13;;;6.83;;
21356;SDS011;10836;53.068;18.234;2022-11-18T04:11:43;9.67;;;5.77;;
21356;SDS011;10836;53.068;18.234;2022-11-18T04:14:39;11.80;;;6.93;;
21356;SDS011;10836;53.068;18.234;2022-11-18T04:17:09;9.27;;;5.43;;
21356;SDS011;10836;53.068;18.234;2022-11-18T04:19:39;9.43;;;5.47;;
21356;SDS011;10836;53.068;18.234;2022-11-18T04:22:06;10.33;;;5.67;;
21356;SDS011;10836;53.068;18.234;2022-11-18T04:24:34;8.13;;;4.77;;
21356;SDS011;10836;53.068;18.234;2022-11-18T04:27:02;10.97;;;5.60;;
21356;SDS011;10836;53.068;18.234;2022-11-18T04:29:30;7.80;;;4.60;;
21356;SDS011;10836;53.068;18.234;2022-11-18T04:31:58;9.13;;;4.80;;
21356;SDS011;10836;53.068;18.234;2022-11-18T04:34:26;11.27;;;4.37;;
21356;SDS011;10836;53.068;18.234;2022-11-18T04:36:54;10.47;;;4.87;;
21356;SDS011;10836;53.068;18.234;2022-11-18T04:39:20;9.40;;;5.03;;
21356;SDS011;10836;53.068;18.234;2022-11-18T04:41:48;9.57;;;4.77;;
21356;SDS011;10836;53.068;18.234;2022-11-18T04:46:53;7.90;;;4.80;;
21356;SDS011;10836;53.068;18.234;2022-11-18T04:49:21;9.83;;;5.47;;
21356;SDS011;10836;53.068;18.234;2022-11-18T04:51:49;11.17;;;5.23;;
21356;SDS011;10836;53.068;18.234;2022-11-18T04:54:18;9.70;;;5.63;;
21356;SDS011;10836;53.068;18.234;2022-11-18T04:56:46;9.77;;;5.13;;
21356;SDS011;10836;53.068;18.234;2022-11-18T04:59:17;12.27;;;5.63;;
21356;SDS011;10836;53.068;18.234;2022-11-18T05:01:47;8.63;;;5.00;;
21356;SDS011;10836;53.068;18.234;2022-11-18T05:04:16;10.17;;;4.90;;
21356;SDS011;10836;53.068;18.234;2022-11-18T05:06:46;11.00;;;5.60;;
21356;SDS011;10836;53.068;18.234;2022-11-18T05:09:13;10.37;;;5.13;;
21356;SDS011;10836;53.068;18.234;2022-11-18T05:11:41;10.13;;;5.63;;
21356;SDS011;10836;53.068;18.234;2022-11-18T05:14:26;10.20;;;4.90;;
21356;SDS011;10836;53.068;18.234;2022-11-18T05:16:55;7.97;;;4.73;;
21356;SDS011;10836;53.068;18.234;2022-11-18T05:19:23;10.57;;;4.73;;
21356;SDS011;10836;53.068;18.234;2022-11-18T05:21:50;9.83;;;5.30;;
21356;SDS011;10836;53.068;18.234;2022-11-18T05:24:18;8.43;;;4.93;;
21356;SDS011;10836;53.068;18.234;2022-11-18T05:26:45;9.07;;;5.13;;
21356;SDS011;10836;53.068;18.234;2022-11-18T05:29:12;8.63;;;4.40;;
21356;SDS011;10836;53.068;18.234;2022-11-18T05:31:40;8.00;;;4.63;;
21356;SDS011;10836;53.068;18.234;2022-11-18T05:34:06;9.90;;;5.57;;
21356;SDS011;10836;53.068;18.234;2022-11-18T05:36:34;10.13;;;4.83;;
21356;SDS011;10836;53.068;18.234;2022-11-18T05:39:02;11.23;;;5.50;;
21356;SDS011;10836;53.068;18.234;2022-11-18T05:41:29;10.07;;;5.00;;
21356;SDS011;10836;53.068;18.234;2022-11-18T05:44:15;9.23;;;5.30;;
21356;SDS011;10836;53.068;18.234;2022-11-18T05:46:43;10.87;;;6.13;;
21356;SDS011;10836;53.068;18.234;2022-11-18T05:49:10;12.23;;;6.27;;
21356;SDS011;10836;53.068;18.234;2022-11-18T05:51:37;11.50;;;5.10;;
21356;SDS011;10836;53.068;18.234;2022-11-18T05:54:05;10.17;;;4.70;;
21356;SDS011;10836;53.068;18.234;2022-11-18T05:56:36;8.83;;;4.73;;
21356;SDS011;10836;53.068;18.234;2022-11-18T05:59:04;9.67;;;5.27;;
21356;SDS011;10836;53.068;18.234;2022-11-18T06:01:34;7.87;;;4.27;;
21356;SDS011;10836;53.068;18.234;2022-11-18T06:04:10;9.77;;;5.27;;
21356;SDS011;10836;53.068;18.234;2022-11-18T06:07:19;13.93;;;5.70;;
21356;SDS011;10836;53.068;18.234;2022-11-18T06:09:50;10.27;;;5.13;;
21356;SDS011;10836;53.068;18.234;2022-11-18T06:12:22;14.83;;;5.27;;
21356;SDS011;10836;53.068;18.234;2022-11-18T06:14:56;8.60;;;4.80;;
21356;SDS011;10836;53.068;18.234;2022-11-18T06:17:30;8.73;;;4.97;;
21356;SDS011;10836;53.068;18.234;2022-11-18T06:20:01;11.70;;;5.53;;
21356;SDS011;10836;53.068;18.234;2022-11-18T06:22:29;10.13;;;5.00;;
21356;SDS011;10836;53.068;18.234;2022-11-18T06:24:56;11.10;;;5.03;;
21356;SDS011;10836;53.068;18.234;2022-11-18T06:27:23;11.13;;;5.20;;
21356;SDS011;10836;53.068;18.234;2022-11-18T06:29:50;7.87;;;4.87;;
21356;SDS011;10836;53.068;18.234;2022-11-18T06:32:18;7.83;;;4.47;;
21356;SDS011;10836;53.068;18.234;2022-11-18T06:34:44;9.57;;;5.90;;
21356;SDS011;10836;53.068;18.234;2022-11-18T06:37:15;9.30;;;4.60;;
21356;SDS011;10836;53.068;18.234;2022-11-18T06:39:46;9.77;;;5.20;;
21356;SDS011;10836;53.068;18.234;2022-11-18T06:42:13;11.17;;;5.93;;
21356;SDS011;10836;53.068;18.234;2022-11-18T06:44:58;9.20;;;4.40;;
21356;SDS011;10836;53.068;18.234;2022-11-18T06:47:26;10.40;;;4.93;;
21356;SDS011;10836;53.068;18.234;2022-11-18T06:49:53;10.23;;;4.77;;
21356;SDS011;10836;53.068;18.234;2022-11-18T06:52:21;13.97;;;6.43;;
21356;SDS011;10836;53.068;18.234;2022-11-18T06:54:49;11.47;;;5.53;;
21356;SDS011;10836;53.068;18.234;2022-11-18T06:57:16;11.83;;;5.00;;
21356;SDS011;10836;53.068;18.234;2022-11-18T06:59:43;13.07;;;6.13;;
21356;SDS011;10836;53.068;18.234;2022-11-18T07:02:10;20.70;;;7.00;;
21356;SDS011;10836;53.068;18.234;2022-11-18T07:04:37;17.37;;;6.83;;
21356;SDS011;10836;53.068;18.234;2022-11-18T07:07:06;18.07;;;6.60;;
21356;SDS011;10836;53.068;18.234;2022-11-18T07:09:34;15.77;;;6.53;;
21356;SDS011;10836;53.068;18.234;2022-11-18T07:12:02;12.43;;;6.23;;
21356;SDS011;10836;53.068;18.234;2022-11-18T07:14:30;11.23;;;5.60;;
21356;SDS011;10836;53.068;18.234;2022-11-18T07:16:57;12.37;;;5.70;;
21356;SDS011;10836;53.068;18.234;2022-11-18T07:19:24;10.17;;;4.73;;
21356;SDS011;10836;53.068;18.234;2022-11-18T07:21:54;10.00;;;5.33;;
21356;SDS011;10836;53.068;18.234;2022-11-18T07:24:22;9.80;;;5.20;;
21356;SDS011;10836;53.068;18.234;2022-11-18T07:26:49;10.33;;;5.27;;
21356;SDS011;10836;53.068;18.234;2022-11-18T07:29:18;12.63;;;5.63;;
21356;SDS011;10836;53.068;18.234;2022-11-18T07:31:46;13.30;;;6.33;;
21356;SDS011;10836;53.068;18.234;2022-11-18T07:34:13;16.83;;;7.40;;
21356;SDS011;10836;53.068;18.234;2022-11-18T07:36:40;15.17;;;5.73;;
21356;SDS011;10836;53.068;18.234;2022-11-18T07:39:07;15.60;;;6.27;;
21356;SDS011;10836;53.068;18.234;2022-11-18T07:41:35;16.37;;;6.93;;
21356;SDS011;10836;53.068;18.234;2022-11-18T07:44:02;14.37;;;6.67;;
21356;SDS011;10836;53.068;18.234;2022-11-18T07:46:31;15.57;;;6.80;;
21356;SDS011;10836;53.068;18.234;2022-11-18T07:49:00;18.67;;;8.00;;
21356;SDS011;10836;53.068;18.234;2022-11-18T07:51:29;19.50;;;8.03;;
21356;SDS011;10836;53.068;18.234;2022-11-18T07:54:00;15.93;;;7.50;;
21356;SDS011;10836;53.068;18.234;2022-11-18T07:56:31;20.60;;;8.20;;
21356;SDS011;10836;53.068;18.234;2022-11-18T07:58:58;15.00;;;7.13;;
21356;SDS011;10836;53.068;18.234;2022-11-18T08:01:25;14.33;;;6.93;;
21356;SDS011;10836;53.068;18.234;2022-11-18T08:03:57;12.53;;;5.70;;
21356;SDS011;10836;53.068;18.234;2022-11-18T08:06:32;9.77;;;5.03;;
21356;SDS011;10836;53.068;18.234;2022-11-18T08:09:00;9.53;;;4.43;;
21356;SDS011;10836;53.068;18.234;2022-11-18T08:11:29;12.40;;;6.00;;
21356;SDS011;10836;53.068;18.234;2022-11-18T08:13:56;12.37;;;5.97;;
21356;SDS011;10836;53.068;18.234;2022-11-18T08:16:23;15.77;;;6.60;;
21356;SDS011;10836;53.068;18.234;2022-11-18T08:18:51;19.23;;;6.37;;
21356;SDS011;10836;53.068;18.234;2022-11-18T08:21:20;16.57;;;6.67;;
21356;SDS011;10836;53.068;18.234;2022-11-18T08:23:48;12.63;;;6.17;;
21356;SDS011;10836;53.068;18.234;2022-11-18T08:26:20;20.90;;;7.90;;
21356;SDS011;10836;53.068;18.234;2022-11-18T08:28:47;15.93;;;7.33;;
21356;SDS011;10836;53.068;18.234;2022-11-18T08:31:16;13.47;;;6.47;;
21356;SDS011;10836;53.068;18.234;2022-11-18T08:33:48;14.10;;;6.57;;
21356;SDS011;10836;53.068;18.234;2022-11-18T08:36:17;14.50;;;6.33;;
21356;SDS011;10836;53.068;18.234;2022-11-18T08:38:46;14.53;;;7.57;;
21356;SDS011;10836;53.068;18.234;2022-11-18T08:41:18;17.00;;;9.07;;
21356;SDS011;10836;53.068;18.234;2022-11-18T08:43:51;15.67;;;7.80;;
21356;SDS011;10836;53.068;18.234;2022-11-18T08:46:18;15.50;;;6.67;;
21356;SDS011;10836;53.068;18.234;2022-11-18T08:48:45;19.00;;;7.20;;
21356;SDS011;10836;53.068;18.234;2022-11-18T08:51:13;19.83;;;7.90;;
21356;SDS011;10836;53.068;18.234;2022-11-18T08:53:40;15.67;;;6.97;;
21356;SDS011;10836;53.068;18.234;2022-11-18T08:56:14;17.77;;;7.23;;
21356;SDS011;10836;53.068;18.234;2022-11-18T08:58:44;22.80;;;8.27;;
21356;SDS011;10836;53.068;18.234;2022-11-18T09:01:12;21.13;;;7.60;;
21356;SDS011;10836;53.068;18.234;2022-11-18T09:03:40;16.80;;;7.17;;
21356;SDS011;10836;53.068;18.234;2022-11-18T09:06:11;19.93;;;6.87;;
21356;SDS011;10836;53.068;18.234;2022-11-18T09:08:42;19.87;;;7.10;;
21356;SDS011;10836;53.068;18.234;2022-11-18T09:11:11;18.20;;;6.80;;
21356;SDS011;10836;53.068;18.234;2022-11-18T09:13:43;13.40;;;6.37;;
21356;SDS011;10836;53.068;18.234;2022-11-18T09:16:31;11.67;;;5.33;;
21356;SDS011;10836;53.068;18.234;2022-11-18T09:18:59;10.93;;;5.40;;
21356;SDS011;10836;53.068;18.234;2022-11-18T09:21:46;11.67;;;4.07;;
21356;SDS011;10836;53.068;18.234;2022-11-18T09:24:14;13.93;;;4.63;;
21356;SDS011;10836;53.068;18.234;2022-11-18T09:26:42;9.50;;;4.70;;
21356;SDS011;10836;53.068;18.234;2022-11-18T09:29:08;10.63;;;4.20;;
21356;SDS011;10836;53.068;18.234;2022-11-18T09:31:37;8.80;;;4.27;;
21356;SDS011;10836;53.068;18.234;2022-11-18T09:34:04;9.30;;;4.47;;
21356;SDS011;10836;53.068;18.234;2022-11-18T09:36:31;11.07;;;5.00;;
21356;SDS011;10836;53.068;18.234;2022-11-18T09:38:58;8.83;;;4.23;;
21356;SDS011;10836;53.068;18.234;2022-11-18T09:49:53;8.27;;;3.03;;
21356;SDS011;10836;53.068;18.234;2022-11-18T09:52:36;6.37;;;3.03;;
21356;SDS011;10836;53.068;18.234;2022-11-18T09:55:12;6.60;;;3.30;;
21356;SDS011;10836;53.068;18.234;2022-11-18T09:57:47;7.67;;;3.77;;
21356;SDS011;10836;53.068;18.234;2022-11-18T10:00:22;8.57;;;3.37;;
21356;SDS011;10836;53.068;18.234;2022-11-18T10:03:01;9.23;;;3.67;;
21356;SDS011;10836;53.068;18.234;2022-11-18T10:11:13;11.20;;;3.80;;
21356;SDS011;10836;53.068;18.234;2022-11-18T10:19:23;8.23;;;3.57;;
21356;SDS011;10836;53.068;18.234;2022-11-18T10:21:59;7.00;;;3.10;;
21356;SDS011;10836;53.068;18.234;2022-11-18T10:24:44;8.17;;;3.43;;
21356;SDS011;10836;53.068;18.234;2022-11-18T10:27:15;6.20;;;2.90;;
21356;SDS011;10836;53.068;18.234;2022-11-18T10:29:44;6.67;;;3.60;;
21356;SDS011;10836;53.068;18.234;2022-11-18T10:32:19;6.07;;;2.93;;
21356;SDS011;10836;53.068;18.234;2022-11-18T10:34:50;8.97;;;3.87;;
21356;SDS011;10836;53.068;18.234;2022-11-18T10:37:26;6.20;;;3.23;;
21356;SDS011;10836;53.068;18.234;2022-11-18T10:40:22;5.50;;;2.27;;
21356;SDS011;10836;53.068;18.234;2022-11-18T10:42:50;5.67;;;2.90;;
21356;SDS011;10836;53.068;18.234;2022-11-18T10:47:57;6.00;;;2.53;;
21356;SDS011;10836;53.068;18.234;2022-11-18T10:50:47;5.43;;;2.40;;
21356;SDS011;10836;53.068;18.234;2022-11-18T10:53:30;8.90;;;3.33;;
21356;SDS011;10836;53.068;18.234;2022-11-18T10:56:00;6.77;;;2.70;;
21356;SDS011;10836;53.068;18.234;2022-11-18T10:58:34;6.10;;;2.70;;
21356;SDS011;10836;53.068;18.234;2022-11-18T11:04:30;5.30;;;2.30;;
21356;SDS011;10836;53.068;18.234;2022-11-18T11:06:43;6.17;;;3.07;;
21356;SDS011;10836;53.068;18.234;2022-11-18T11:17:28;8.90;;;3.57;;
21356;SDS011;10836;53.068;18.234;2022-11-18T11:22:36;7.77;;;3.20;;
21356;SDS011;10836;53.068;18.234;2022-11-18T11:25:05;7.97;;;3.80;;
21356;SDS011;10836;53.068;18.234;2022-11-18T11:30:33;4.20;;;2.37;;
21356;SDS011;10836;53.068;18.234;2022-11-18T11:44:58;6.93;;;2.77;;
21356;SDS011;10836;53.068;18.234;2022-11-18T11:50:34;13.50;;;4.10;;
21356;SDS011;10836;53.068;18.234;2022-11-18T11:56:46;10.27;;;3.40;;
21356;SDS011;10836;53.068;18.234;2022-11-18T12:04:45;5.37;;;2.07;;
21356;SDS011;10836;53.068;18.234;2022-11-18T12:07:15;4.97;;;2.17;;
21356;SDS011;10836;53.068;18.234;2022-11-18T12:13:05;5.73;;;2.83;;
21356;SDS011;10836;53.068;18.234;2022-11-18T12:18:11;6.87;;;2.13;;
21356;SDS011;10836;53.068;18.234;2022-11-18T12:21:03;6.53;;;2.73;;
21356;SDS011;10836;53.068;18.234;2022-11-18T12:23:31;10.73;;;4.07;;
21356;SDS011;10836;53.068;18.234;2022-11-18T12:26:00;7.67;;;3.13;;
21356;SDS011;10836;53.068;18.234;2022-11-18T12:28:32;8.30;;;3.37;;
21356;SDS011;10836;53.068;18.234;2022-11-18T12:33:48;7.00;;;2.80;;
21356;SDS011;10836;53.068;18.234;2022-11-18T12:38:53;12.40;;;2.63;;
21356;SDS011;10836;53.068;18.234;2022-11-18T12:44:26;3.27;;;1.83;;
21356;SDS011;10836;53.068;18.234;2022-11-18T12:46:55;3.47;;;2.00;;
21356;SDS011;10836;53.068;18.234;2022-11-18T12:51:54;7.40;;;2.93;;
21356;SDS011;10836;53.068;18.234;2022-11-18T12:57:12;3.13;;;1.97;;
21356;SDS011;10836;53.068;18.234;2022-11-18T12:59:45;4.73;;;2.20;;
21356;SDS011;10836;53.068;18.234;2022-11-18T13:05:09;4.20;;;2.27;;
21356;SDS011;10836;53.068;18.234;2022-11-18T13:10:32;4.90;;;2.53;;
21356;SDS011;10836;53.068;18.234;2022-11-18T13:13:03;7.10;;;2.57;;
21356;SDS011;10836;53.068;18.234;2022-11-18T13:15:31;7.83;;;2.40;;
21356;SDS011;10836;53.068;18.234;2022-11-18T13:18:17;5.37;;;2.03;;
21356;SDS011;10836;53.068;18.234;2022-11-18T13:20:56;3.27;;;1.80;;
21356;SDS011;10836;53.068;18.234;2022-11-18T13:26:25;6.60;;;2.73;;
21356;SDS011;10836;53.068;18.234;2022-11-18T13:28:58;11.10;;;4.50;;
21356;SDS011;10836;53.068;18.234;2022-11-18T13:34:39;4.90;;;2.50;;
21356;SDS011;10836;53.068;18.234;2022-11-18T13:37:16;7.87;;;2.07;;
21356;SDS011;10836;53.068;18.234;2022-11-18T13:39:46;7.47;;;2.83;;
21356;SDS011;10836;53.068;18.234;2022-11-18T13:42:16;4.10;;;2.30;;
21356;SDS011;10836;53.068;18.234;2022-11-18T13:44:57;8.40;;;2.90;;
21356;SDS011;10836;53.068;18.234;2022-11-18T13:50:04;5.43;;;2.40;;
21356;SDS011;10836;53.068;18.234;2022-11-18T13:55:53;4.60;;;2.63;;
21356;SDS011;10836;53.068;18.234;2022-11-18T13:58:30;7.80;;;3.40;;
21356;SDS011;10836;53.068;18.234;2022-11-18T14:01:36;4.97;;;2.60;;
21356;SDS011;10836;53.068;18.234;2022-11-18T14:07:27;9.23;;;3.93;;
21356;SDS011;10836;53.068;18.234;2022-11-18T14:10:04;9.63;;;3.80;;
21356;SDS011;10836;53.068;18.234;2022-11-18T14:12:34;6.60;;;3.27;;
21356;SDS011;10836;53.068;18.234;2022-11-18T14:15:31;5.23;;;2.90;;
21356;SDS011;10836;53.068;18.234;2022-11-18T14:18:16;6.53;;;2.63;;
21356;SDS011;10836;53.068;18.234;2022-11-18T14:21:02;7.50;;;3.33;;
21356;SDS011;10836;53.068;18.234;2022-11-18T14:23:33;5.67;;;3.13;;
21356;SDS011;10836;53.068;18.234;2022-11-18T14:26:03;9.17;;;3.73;;
21356;SDS011;10836;53.068;18.234;2022-11-18T14:28:32;8.83;;;3.87;;
21356;SDS011;10836;53.068;18.234;2022-11-18T14:33:51;8.70;;;3.77;;
21356;SDS011;10836;53.068;18.234;2022-11-18T14:36:29;6.20;;;3.20;;
21356;SDS011;10836;53.068;18.234;2022-11-18T14:38:56;9.57;;;4.10;;
21356;SDS011;10836;53.068;18.234;2022-11-18T14:41:43;10.47;;;4.10;;
21356;SDS011;10836;53.068;18.234;2022-11-18T14:44:13;8.30;;;4.20;;
21356;SDS011;10836;53.068;18.234;2022-11-18T14:46:41;8.90;;;4.33;;
21356;SDS011;10836;53.068;18.234;2022-11-18T14:49:16;8.60;;;4.70;;
21356;SDS011;10836;53.068;18.234;2022-11-18T14:51:45;7.57;;;3.60;;
21356;SDS011;10836;53.068;18.234;2022-11-18T14:54:13;8.27;;;3.33;;
21356;SDS011;10836;53.068;18.234;2022-11-18T14:56:45;8.63;;;3.47;;
21356;SDS011;10836;53.068;18.234;2022-11-18T14:59:16;7.47;;;3.17;;
21356;SDS011;10836;53.068;18.234;2022-11-18T15:01:44;10.67;;;4.30;;
21356;SDS011;10836;53.068;18.234;2022-11-18T15:04:13;10.40;;;4.50;;
21356;SDS011;10836;53.068;18.234;2022-11-18T15:06:43;9.90;;;4.17;;
21356;SDS011;10836;53.068;18.234;2022-11-18T15:09:10;9.87;;;4.03;;
21356;SDS011;10836;53.068;18.234;2022-11-18T15:11:37;9.57;;;4.20;;
21356;SDS011;10836;53.068;18.234;2022-11-18T15:14:05;9.57;;;4.67;;
21356;SDS011;10836;53.068;18.234;2022-11-18T15:16:32;10.23;;;4.30;;
21356;SDS011;10836;53.068;18.234;2022-11-18T15:19:01;11.57;;;4.90;;
21356;SDS011;10836;53.068;18.234;2022-11-18T15:21:30;16.73;;;6.57;;
21356;SDS011;10836;53.068;18.234;2022-11-18T15:23:58;10.23;;;4.73;;
21356;SDS011;10836;53.068;18.234;2022-11-18T15:26:26;9.40;;;4.43;;
21356;SDS011;10836;53.068;18.234;2022-11-18T15:28:55;17.20;;;5.40;;
21356;SDS011;10836;53.068;18.234;2022-11-18T15:31:23;12.37;;;5.57;;
21356;SDS011;10836;53.068;18.234;2022-11-18T15:33:51;13.33;;;4.87;;
21356;SDS011;10836;53.068;18.234;2022-11-18T15:36:22;9.97;;;4.60;;
21356;SDS011;10836;53.068;18.234;2022-11-18T15:38:52;11.73;;;5.23;;
21356;SDS011;10836;53.068;18.234;2022-11-18T15:41:21;11.37;;;4.83;;
21356;SDS011;10836;53.068;18.234;2022-11-18T15:43:51;10.90;;;4.80;;
21356;SDS011;10836;53.068;18.234;2022-11-18T15:46:20;11.30;;;5.00;;
21356;SDS011;10836;53.068;18.234;2022-11-18T15:48:57;12.83;;;5.70;;
21356;SDS011;10836;53.068;18.234;2022-11-18T15:51:26;13.80;;;6.43;;
21356;SDS011;10836;53.068;18.234;2022-11-18T15:53:54;18.27;;;6.57;;
21356;SDS011;10836;53.068;18.234;2022-11-18T16:01:26;15.03;;;5.90;;
21356;SDS011;10836;53.068;18.234;2022-11-18T16:03:55;21.10;;;8.97;;
21356;SDS011;10836;53.068;18.234;2022-11-18T16:06:23;16.00;;;6.63;;
21356;SDS011;10836;53.068;18.234;2022-11-18T16:08:50;17.90;;;9.10;;
21356;SDS011;10836;53.068;18.234;2022-11-18T16:11:25;27.00;;;10.60;;
21356;SDS011;10836;53.068;18.234;2022-11-18T16:14:29;24.50;;;9.10;;
21356;SDS011;10836;53.068;18.234;2022-11-18T16:16:56;27.77;;;10.30;;
21356;SDS011;10836;53.068;18.234;2022-11-18T16:19:24;58.57;;;26.53;;
21356;SDS011;10836;53.068;18.234;2022-11-18T16:21:53;30.77;;;11.63;;
21356;SDS011;10836;53.068;18.234;2022-11-18T16:24:24;35.07;;;12.63;;
21356;SDS011;10836;53.068;18.234;2022-11-18T16:26:53;28.73;;;10.77;;
21356;SDS011;10836;53.068;18.234;2022-11-18T16:29:21;22.33;;;8.87;;
21356;SDS011;10836;53.068;18.234;2022-11-18T16:31:50;25.53;;;10.43;;
21356;SDS011;10836;53.068;18.234;2022-11-18T16:34:19;22.17;;;9.20;;
21356;SDS011;10836;53.068;18.234;2022-11-18T16:36:52;18.03;;;8.07;;
21356;SDS011;10836;53.068;18.234;2022-11-18T16:39:24;22.13;;;8.87;;
21356;SDS011;10836;53.068;18.234;2022-11-18T16:41:53;20.00;;;8.10;;
21356;SDS011;10836;53.068;18.234;2022-11-18T16:44:32;18.30;;;7.57;;
21356;SDS011;10836;53.068;18.234;2022-11-18T16:46:59;13.93;;;6.57;;
21356;SDS011;10836;53.068;18.234;2022-11-18T16:49:26;22.77;;;7.73;;
21356;SDS011;10836;53.068;18.234;2022-11-18T16:51:54;17.53;;;6.63;;
21356;SDS011;10836;53.068;18.234;2022-11-18T16:54:29;15.97;;;6.83;;
21356;SDS011;10836;53.068;18.234;2022-11-18T16:56:57;17.57;;;8.27;;
21356;SDS011;10836;53.068;18.234;2022-11-18T16:59:26;16.00;;;7.23;;
21356;SDS011;10836;53.068;18.234;2022-11-18T17:01:55;17.00;;;7.70;;
21356;SDS011;10836;53.068;18.234;2022-11-18T17:04:25;19.33;;;6.70;;
21356;SDS011;10836;53.068;18.234;2022-11-18T17:06:54;13.77;;;5.70;;
21356;SDS011;10836;53.068;18.234;2022-11-18T17:09:22;16.47;;;6.10;;
21356;SDS011;10836;53.068;18.234;2022-11-18T17:11:50;11.70;;;5.60;;